Time;durP1;ratioP1;P1;durP2;ratioP2;P2;SDS_P1;SDS_P2;PMS_P1;PMS_P2;Temp;Humidity;BMP_temperature;BMP_pressure;BME280_temperature;BME280_humidity;BME280_pressure;Samples;Min_cycle;Max_cycle;Signal;HPM_P1;HPM_P2
2023/07/06 00:00:19;;;;;;;3.40;2.60;;;12.60;99.90;;;;;;8353257;28;20212;-65
2023/07/06 00:04:21;;;;;;;4.17;2.60;;;12.40;99.90;;;;;;8346576;28;20346;-65
2023/07/06 00:08:22;;;;;;;3.67;2.33;;;12.30;99.90;;;;;;8366381;28;20187;-64
2023/07/06 00:12:23;;;;;;;3.63;2.60;;;12.20;99.90;;;;;;8354761;28;20259;-65
2023/07/06 00:16:23;;;;;;;2.37;1.90;;;12.10;99.90;;;;;;8349534;28;20184;-65
2023/07/06 00:20:24;;;;;;;3.90;2.70;;;12.00;99.90;;;;;;8354372;28;20202;-65
2023/07/06 00:24:26;;;;;;;3.17;2.40;;;12.00;99.90;;;;;;8364296;28;20180;-65
2023/07/06 00:28:28;;;;;;;3.47;2.63;;;11.90;99.90;;;;;;8346662;28;20188;-64
2023/07/06 00:32:32;;;;;;;5.47;2.20;;;11.90;99.90;;;;;;8351267;28;20186;-65
2023/07/06 00:36:37;;;;;;;2.70;1.90;;;11.80;99.90;;;;;;8343841;28;20192;-65
2023/07/06 00:40:39;;;;;;;2.93;2.40;;;11.70;99.90;;;;;;8366850;28;20215;-66
2023/07/06 00:44:49;;;;;;;2.33;2.10;;;11.70;99.90;;;;;;8354232;28;20274;-67
2023/07/06 00:48:52;;;;;;;5.43;2.50;;;11.70;99.90;;;;;;8365328;28;20269;-66
2023/07/06 00:53:14;;;;;;;4.43;2.13;;;11.70;99.90;;;;;;8364088;28;20180;-67
2023/07/06 00:57:17;;;;;;;3.40;2.00;;;11.70;99.90;;;;;;8362642;28;20239;-66
2023/07/06 01:01:25;;;;;;;3.27;2.17;;;11.70;99.90;;;;;;8354772;28;20175;-66
2023/07/06 01:05:28;;;;;;;4.93;2.40;;;11.80;99.90;;;;;;8364511;28;20204;-66
2023/07/06 01:09:29;;;;;;;3.20;2.20;;;11.70;99.90;;;;;;8351022;28;20384;-65
2023/07/06 01:13:32;;;;;;;3.20;2.43;;;11.70;99.90;;;;;;8347211;28;20244;-65
2023/07/06 01:17:47;;;;;;;4.80;2.83;;;11.70;99.90;;;;;;8365589;28;20213;-66
2023/07/06 01:22:17;;;;;;;4.93;2.93;;;11.80;99.90;;;;;;8353332;28;20187;-66
2023/07/06 01:26:37;;;;;;;3.57;2.60;;;11.90;99.90;;;;;;8362861;28;20189;-65
2023/07/06 01:30:59;;;;;;;4.87;2.57;;;12.00;99.90;;;;;;8345263;28;20201;-68
2023/07/06 01:35:12;;;;;;;6.73;3.10;;;12.10;99.90;;;;;;8351246;28;20190;-67
2023/07/06 01:39:22;;;;;;;6.73;2.90;;;12.20;99.90;;;;;;8351286;28;20219;-66
2023/07/06 01:43:22;;;;;;;3.70;2.40;;;12.10;99.90;;;;;;8354212;28;20184;-65
2023/07/06 01:47:24;;;;;;;3.10;2.47;;;12.00;99.90;;;;;;8347571;28;20231;-70
2023/07/06 01:51:51;;;;;;;2.63;2.23;;;11.80;99.90;;;;;;8349678;28;20181;-65
2023/07/06 01:55:55;;;;;;;3.60;2.43;;;11.80;99.90;;;;;;8366177;28;20179;-66
2023/07/06 02:00:01;;;;;;;3.70;2.40;;;11.70;99.90;;;;;;8363347;28;20241;-67
2023/07/06 02:04:06;;;;;;;3.10;2.40;;;11.70;99.90;;;;;;8354133;28;20217;-66
2023/07/06 02:08:09;;;;;;;5.10;2.70;;;11.70;99.90;;;;;;8351502;28;20200;-66
2023/07/06 02:12:14;;;;;;;6.20;2.37;;;11.60;99.90;;;;;;8365180;28;20234;-67
2023/07/06 02:16:15;;;;;;;3.80;2.63;;;11.40;99.90;;;;;;8345509;28;20237;-67
2023/07/06 02:20:19;;;;;;;3.63;2.60;;;11.20;99.90;;;;;;8350440;28;20205;-68
2023/07/06 02:24:20;;;;;;;5.73;3.10;;;11.00;99.90;;;;;;8344629;28;20177;-67
2023/07/06 02:28:22;;;;;;;4.80;2.80;;;11.00;99.90;;;;;;8347807;28;20185;-70
2023/07/06 02:32:23;;;;;;;4.50;2.60;;;11.00;99.90;;;;;;8363652;28;20178;-66
2023/07/06 02:36:23;;;;;;;6.07;2.90;;;10.90;99.90;;;;;;8346292;28;20195;-70
2023/07/06 02:40:27;;;;;;;5.17;2.77;;;10.90;99.90;;;;;;8343835;28;20210;-67
2023/07/06 02:44:28;;;;;;;3.87;2.77;;;10.90;1.00;;;;;;8361328;28;20318;-67
2023/07/06 02:48:29;;;;;;;5.33;3.27;;;10.80;1.00;;;;;;8351099;28;20246;-68
2023/07/06 02:52:30;;;;;;;4.60;3.03;;;10.80;1.00;;;;;;8351300;28;20205;-67
2023/07/06 02:56:31;;;;;;;3.33;2.67;;;10.70;1.00;;;;;;8353853;28;20192;-67
2023/07/06 03:00:31;;;;;;;6.03;2.87;;;10.70;1.00;;;;;;8368527;28;20221;-68
2023/07/06 03:04:32;;;;;;;4.90;2.80;;;10.70;1.00;;;;;;8369651;28;20207;-68
2023/07/06 03:08:33;;;;;;;5.43;2.90;;;10.80;1.00;;;;;;8352276;28;20280;-69
2023/07/06 03:12:37;;;;;;;3.37;2.70;;;10.90;1.00;;;;;;8350565;28;20261;-69
2023/07/06 03:16:40;;;;;;;2.97;2.53;;;11.00;1.00;;;;;;8352323;28;20281;-68
2023/07/06 03:20:41;;;;;;;3.63;2.50;;;11.30;1.00;;;;;;8357627;28;20228;-69
2023/07/06 03:24:44;;;;;;;3.53;2.50;;;11.50;1.00;;;;;;8355236;28;20190;-69
2023/07/06 03:28:45;;;;;;;3.40;2.60;;;11.50;1.00;;;;;;8368540;28;20288;-68
2023/07/06 03:32:45;;;;;;;3.37;2.50;;;11.50;1.00;;;;;;8364517;28;20199;-69
2023/07/06 03:36:46;;;;;;;3.43;2.53;;;11.50;1.00;;;;;;8356159;28;20203;-68
2023/07/06 03:40:50;;;;;;;4.43;2.80;;;11.60;1.00;;;;;;8349293;28;20213;-68
2023/07/06 03:44:55;;;;;;;3.90;2.57;;;11.90;1.00;;;;;;8350189;28;20228;-68
2023/07/06 03:48:56;;;;;;;4.60;2.43;;;13.20;99.90;;;;;;8366285;28;20245;-67
2023/07/06 03:52:58;;;;;;;4.73;2.23;;;15.00;99.90;;;;;;8351581;28;20185;-68
2023/07/06 03:56:59;;;;;;;6.97;2.70;;;16.50;9.70;;;;;;8371132;28;20193;-69
2023/07/06 04:01:00;;;;;;;4.10;2.70;;;17.60;1.00;;;;;;8349516;28;20241;-68
2023/07/06 04:05:01;;;;;;;4.67;2.87;;;18.20;1.00;;;;;;8355058;28;20201;-68
2023/07/06 04:09:03;;;;;;;4.30;2.60;;;17.90;1.00;;;;;;8350612;28;20193;-70
2023/07/06 04:13:04;;;;;;;3.43;2.23;;;18.40;1.00;;;;;;8354768;28;20327;-70
2023/07/06 04:17:07;;;;;;;3.30;2.47;;;19.20;1.00;;;;;;8365665;28;20197;-70
2023/07/06 04:21:08;;;;;;;7.80;2.80;;;19.60;1.00;;;;;;8352154;28;20213;-69
2023/07/06 04:25:09;;;;;;;5.27;2.93;;;20.00;1.00;;;;;;8353217;28;20195;-70
2023/07/06 04:29:10;;;;;;;4.23;2.33;;;20.70;1.00;;;;;;8347137;28;20191;-70
2023/07/06 04:33:19;;;;;;;4.83;2.50;;;20.40;1.00;;;;;;8352692;28;20185;-69
2023/07/06 04:37:22;;;;;;;4.83;2.43;;;19.60;1.00;;;;;;8352289;28;20182;-70
2023/07/06 04:41:22;;;;;;;4.03;1.90;;;19.40;1.00;;;;;;8349865;28;20182;-69
2023/07/06 04:45:25;;;;;;;6.40;2.40;;;18.90;1.00;;;;;;8346042;28;20189;-68
2023/07/06 04:49:26;;;;;;;5.43;2.20;;;18.40;1.00;;;;;;8361458;28;20186;-69
2023/07/06 04:53:28;;;;;;;3.40;2.40;;;18.20;1.00;;;;;;8362737;28;20180;-69
2023/07/06 04:57:29;;;;;;;4.47;2.60;;;18.10;1.00;;;;;;8347546;28;20197;-69
2023/07/06 05:01:30;;;;;;;4.37;2.30;;;18.10;1.00;;;;;;8368959;28;20209;-70
2023/07/06 05:05:45;;;;;;;4.37;2.43;;;18.60;1.00;;;;;;8345647;28;20230;-68
2023/07/06 05:09:51;;;;;;;6.37;2.47;;;19.60;1.00;;;;;;8364257;28;20255;-69
2023/07/06 05:13:55;;;;;;;6.20;2.90;;;20.30;1.00;;;;;;8362364;28;20263;-71
2023/07/06 05:17:56;;;;;;;5.87;2.67;;;20.70;1.00;;;;;;8348204;28;20201;-73
2023/07/06 05:21:57;;;;;;;5.53;2.60;;;20.70;1.00;;;;;;8352590;28;20270;-70
2023/07/06 05:26:02;;;;;;;3.93;2.53;;;20.60;1.00;;;;;;8347140;28;20186;-69
2023/07/06 05:30:05;;;;;;;4.23;2.70;;;20.60;1.00;;;;;;8349105;28;20191;-69
2023/07/06 05:34:08;;;;;;;5.63;2.37;;;20.50;1.00;;;;;;8349822;28;20182;-69
2023/07/06 05:38:12;;;;;;;4.47;2.37;;;20.50;1.00;;;;;;8352933;28;20208;-71
2023/07/06 05:42:13;;;;;;;4.50;2.40;;;20.50;1.00;;;;;;8349846;28;20181;-71
2023/07/06 05:46:16;;;;;;;2.83;2.27;;;20.50;1.00;;;;;;8348961;28;20181;-68
2023/07/06 05:50:17;;;;;;;4.13;2.23;;;20.20;1.00;;;;;;8348596;28;20186;-67
2023/07/06 05:54:18;;;;;;;3.30;2.30;;;20.10;1.00;;;;;;8348583;28;20182;-71
2023/07/06 05:58:19;;;;;;;5.83;2.90;;;20.10;1.00;;;;;;8345167;28;20292;-69
2023/07/06 06:02:21;;;;;;;4.70;2.60;;;20.10;1.00;;;;;;8351672;28;20178;-68
2023/07/06 06:06:24;;;;;;;5.63;2.50;;;20.20;1.00;;;;;;8349821;28;20205;-68
2023/07/06 06:10:25;;;;;;;3.27;2.17;;;20.30;1.00;;;;;;8351265;28;20198;-67
2023/07/06 06:14:27;;;;;;;4.13;2.50;;;20.50;1.00;;;;;;8347410;28;20268;-67
2023/07/06 06:18:27;;;;;;;3.47;2.20;;;20.20;1.00;;;;;;8347852;28;20209;-69
2023/07/06 06:22:28;;;;;;;2.43;2.00;;;19.90;1.00;;;;;;8344691;28;20272;-68
2023/07/06 06:26:29;;;;;;;6.27;2.67;;;19.70;1.00;;;;;;8347729;28;20337;-67
2023/07/06 06:30:30;;;;;;;4.67;2.60;;;19.70;1.00;;;;;;8361461;28;20185;-68
2023/07/06 06:34:31;;;;;;;4.13;2.80;;;19.70;1.00;;;;;;8351821;28;20189;-67
2023/07/06 06:38:34;;;;;;;5.67;2.30;;;19.80;1.00;;;;;;8357738;28;20272;-67
2023/07/06 06:42:35;;;;;;;4.40;2.57;;;19.80;1.00;;;;;;8352517;28;20178;-66
2023/07/06 06:46:37;;;;;;;3.87;2.30;;;19.70;1.00;;;;;;8367509;28;20315;-70
2023/07/06 06:50:37;;;;;;;4.80;2.13;;;19.70;1.00;;;;;;8357972;28;20192;-66
2023/07/06 06:54:40;;;;;;;4.33;2.27;;;19.80;1.00;;;;;;8358513;28;20185;-69
2023/07/06 06:58:41;;;;;;;7.27;2.57;;;20.00;1.00;;;;;;8367982;28;20220;-68
2023/07/06 07:02:42;;;;;;;4.13;2.33;;;20.10;1.00;;;;;;8355628;28;20185;-69
2023/07/06 07:06:43;;;;;;;2.53;2.00;;;20.20;1.00;;;;;;8354685;28;20182;-68
2023/07/06 07:10:55;;;;;;;4.90;2.07;;;20.40;1.00;;;;;;8369817;28;20216;-69
2023/07/06 07:15:19;;;;;;;2.77;1.97;;;20.50;1.00;;;;;;8358372;28;20221;-71
2023/07/06 07:19:21;;;;;;;4.77;2.10;;;20.70;1.00;;;;;;8352662;28;20487;-69
2023/07/06 07:23:24;;;;;;;4.90;2.30;;;20.80;1.00;;;;;;8370402;28;20169;-69
2023/07/06 07:27:28;;;;;;;2.43;1.53;;;20.90;1.00;;;;;;8367021;28;20220;-69
2023/07/06 07:31:28;;;;;;;3.67;1.97;;;20.90;1.00;;;;;;8369238;28;20273;-68
2023/07/06 07:35:29;;;;;;;3.43;2.10;;;21.20;1.00;;;;;;8350210;28;20319;-68
2023/07/06 07:39:31;;;;;;;3.00;1.90;;;21.40;1.00;;;;;;8354279;28;20248;-69
2023/07/06 07:43:33;;;;;;;2.67;1.97;;;21.60;1.00;;;;;;8349447;28;20364;-68
2023/07/06 07:47:34;;;;;;;3.20;1.77;;;21.80;1.00;;;;;;8355911;28;20205;-68
2023/07/06 07:51:35;;;;;;;3.30;1.93;;;21.80;1.00;;;;;;8347541;28;20283;-69
2023/07/06 07:55:36;;;;;;;3.97;1.70;;;21.80;1.00;;;;;;8347100;28;20221;-68
2023/07/06 07:59:38;;;;;;;4.20;1.80;;;22.00;1.00;;;;;;8353659;28;20217;-69
2023/07/06 08:03:39;;;;;;;4.33;1.77;;;22.30;1.00;;;;;;8355851;28;20193;-69
2023/07/06 08:07:40;;;;;;;2.70;1.90;;;22.70;1.00;;;;;;8351319;28;20250;-69
2023/07/06 08:11:45;;;;;;;7.23;1.93;;;22.90;1.00;;;;;;8352934;28;20188;-69
2023/07/06 08:15:47;;;;;;;3.63;1.80;;;23.10;1.00;;;;;;8348641;28;20189;-70
2023/07/06 08:19:48;;;;;;;2.97;1.63;;;23.10;1.00;;;;;;8357040;28;20209;-69
2023/07/06 08:23:50;;;;;;;2.93;1.83;;;23.10;1.00;;;;;;8365023;28;20277;-68
2023/07/06 08:27:52;;;;;;;3.17;1.60;;;23.00;1.00;;;;;;8365413;28;20240;-68
2023/07/06 08:31:53;;;;;;;2.70;1.57;;;23.10;1.00;;;;;;8348563;28;20189;-70
2023/07/06 08:35:57;;;;;;;3.50;1.73;;;23.30;1.00;;;;;;8368195;28;20185;-71
2023/07/06 08:40:01;;;;;;;2.87;1.37;;;23.40;1.00;;;;;;8362631;28;20337;-69
2023/07/06 08:44:03;;;;;;;2.47;1.50;;;23.50;1.00;;;;;;8349545;28;20199;-69
2023/07/06 08:48:16;;;;;;;1.90;1.50;;;23.90;1.00;;;;;;8368230;28;20191;-68
2023/07/06 08:52:19;;;;;;;3.50;1.83;;;24.00;1.00;;;;;;8366457;28;20189;-68
2023/07/06 08:56:25;;;;;;;2.77;1.43;;;24.00;1.00;;;;;;8366930;28;20186;-71
2023/07/06 09:00:27;;;;;;;2.63;1.30;;;24.40;1.00;;;;;;8353298;28;20223;-69
2023/07/06 09:04:29;;;;;;;2.97;1.63;;;24.30;1.00;;;;;;8348958;28;20236;-69
2023/07/06 09:08:29;;;;;;;2.83;1.70;;;24.00;1.00;;;;;;8348917;28;20269;-69
2023/07/06 09:12:33;;;;;;;2.47;1.50;;;24.50;1.00;;;;;;8345118;28;20186;-69
2023/07/06 09:16:49;;;;;;;4.97;1.50;;;24.80;1.00;;;;;;8353578;28;20191;-69
2023/07/06 09:20:50;;;;;;;2.27;1.37;;;25.20;1.00;;;;;;8352246;28;20262;-70
2023/07/06 09:24:51;;;;;;;1.83;1.23;;;25.50;1.00;;;;;;8352066;28;20276;-73
2023/07/06 09:29:17;;;;;;;2.27;1.47;;;25.40;1.00;;;;;;8366891;28;20185;-70
2023/07/06 09:33:24;;;;;;;3.13;1.42;;;25.10;1.00;;;;;;8348892;28;20304;-73
2023/07/06 09:37:25;;;;;;;3.28;1.40;;;25.40;1.00;;;;;;8346853;28;20186;-69
2023/07/06 09:41:29;;;;;;;4.47;1.60;;;25.40;1.00;;;;;;8345934;28;20205;-70
2023/07/06 09:45:31;;;;;;;3.50;1.40;;;25.00;1.00;;;;;;8352997;28;20207;-68
2023/07/06 09:49:48;;;;;;;2.63;1.40;;;24.20;1.00;;;;;;8364901;28;20177;-71
2023/07/06 09:53:53;;;;;;;2.17;1.27;;;24.70;1.00;;;;;;8366244;28;20178;-73
2023/07/06 09:57:54;;;;;;;2.93;1.17;;;25.00;1.00;;;;;;8350175;28;20495;-69
2023/07/06 10:01:58;;;;;;;1.57;1.07;;;25.40;1.00;;;;;;8347604;28;20184;-70
2023/07/06 10:06:34;;;;;;;1.80;1.50;;;25.20;1.00;;;;;;8349855;28;20211;-72
2023/07/06 10:10:48;;;;;;;4.47;1.63;;;24.50;1.00;;;;;;8338689;28;20194;-70
2023/07/06 10:14:50;;;;;;;3.53;1.50;;;24.10;1.00;;;;;;8363666;28;20273;-71
2023/07/06 10:18:56;;;;;;;2.50;1.10;;;24.10;1.00;;;;;;8364565;28;20209;-72
2023/07/06 10:23:19;;;;;;;2.20;1.30;;;24.70;1.00;;;;;;8348049;28;20185;-73
2023/07/06 10:27:28;;;;;;;2.30;1.17;;;25.60;1.00;;;;;;8362896;28;20177;-73
2023/07/06 10:31:43;;;;;;;4.60;1.38;;;26.40;1.00;;;;;;8352097;28;20193;-72
2023/07/06 10:35:50;;;;;;;3.38;1.58;;;27.10;1.00;;;;;;8362709;28;20183;-73
2023/07/06 10:40:04;;;;;;;4.28;1.10;;;27.50;1.00;;;;;;8347275;28;20245;-72
2023/07/06 10:44:46;;;;;;;3.88;1.20;;;27.20;1.00;;;;;;8364477;28;20174;-73
2023/07/06 10:48:55;;;;;;;1.70;1.20;;;26.90;1.00;;;;;;8362182;28;20182;-74
2023/07/06 10:53:35;;;;;;;5.55;1.33;;;26.90;1.00;;;;;;8347102;28;20185;-70
2023/07/06 10:57:36;;;;;;;3.13;1.27;;;25.70;99.90;;;;;;8341848;28;20287;-71
2023/07/06 11:01:40;;;;;;;2.13;1.20;;;25.00;1.00;;;;;;8344404;28;20261;-73
2023/07/06 11:05:54;;;;;;;1.53;1.03;;;25.10;1.00;;;;;;8346957;28;20210;-71
2023/07/06 11:10:32;;;;;;;2.07;1.20;;;24.80;99.90;;;;;;8361430;28;20185;-69
2023/07/06 11:14:39;;;;;;;2.13;1.37;;;24.70;1.00;;;;;;8368714;28;20268;-72
2023/07/06 11:18:46;;;;;;;2.20;1.37;;;25.20;1.00;;;;;;8359787;28;20248;-68
2023/07/06 11:22:52;;;;;;;2.37;1.33;;;25.70;1.00;;;;;;8362257;28;20185;-70
2023/07/06 11:27:06;;;;;;;1.83;1.20;;;25.50;99.90;;;;;;8362316;28;20184;-69
2023/07/06 11:31:28;;;;;;;1.90;1.42;;;25.80;99.90;;;;;;8370135;28;20182;-69
2023/07/06 11:35:44;;;;;;;4.22;1.40;;;26.30;99.90;;;;;;8369827;28;20279;-70
2023/07/06 11:40:06;;;;;;;3.28;1.45;;;26.60;99.90;;;;;;8356111;28;20220;-70
2023/07/06 11:44:26;;;;;;;3.08;1.40;;;26.20;99.90;;;;;;8350298;28;20181;-68
2023/07/06 11:48:49;;;;;;;2.35;1.50;;;26.20;99.90;;;;;;8355860;28;20254;-68
2023/07/06 11:57:31;;;;;;;2.33;1.10;;;26.20;99.90;;;;;;8330225;28;20327;-70
2023/07/06 12:01:45;;;;;;;3.45;1.20;;;26.90;99.90;;;;;;8350853;28;20225;-71
2023/07/06 12:05:49;;;;;;;3.38;1.30;;;27.00;99.90;;;;;;8367352;28;20208;-69
2023/07/06 12:09:50;;;;;;;2.60;1.10;;;26.10;99.90;;;;;;8364962;28;20253;-69
2023/07/06 12:13:56;;;;;;;2.55;1.27;;;25.90;99.90;;;;;;8352797;28;20216;-70
2023/07/06 12:17:57;;;;;;;6.00;1.63;;;26.00;99.90;;;;;;8353941;28;20187;-70
2023/07/06 12:21:59;;;;;;;2.05;1.35;;;26.20;99.90;;;;;;8351570;28;20293;-70
2023/07/06 12:26:00;;;;;;;2.42;1.30;;;26.30;99.90;;;;;;8348584;28;20181;-68
2023/07/06 12:30:06;;;;;;;1.75;1.30;;;26.40;99.90;;;;;;8349345;28;20270;-67
2023/07/06 12:34:08;;;;;;;1.92;1.25;;;26.20;99.90;;;;;;8355094;28;20189;-69
2023/07/06 12:38:19;;;;;;;6.30;1.30;;;26.30;99.90;;;;;;8365253;28;20206;-71
2023/07/06 12:42:23;;;;;;;2.95;0.95;;;26.80;99.90;;;;;;8349204;28;20205;-71
2023/07/06 12:46:30;;;;;;;2.78;1.35;;;27.30;99.90;;;;;;8353565;28;20177;-71
2023/07/06 12:50:37;;;;;;;1.83;1.10;;;27.30;99.90;;;;;;8353396;28;20198;-72
2023/07/06 12:54:48;;;;;;;1.95;1.10;;;26.60;99.90;;;;;;8349412;28;20191;-70
2023/07/06 12:59:02;;;;;;;2.92;1.30;;;26.10;99.90;;;;;;8345206;28;20213;-69
2023/07/06 13:03:04;;;;;;;1.25;0.90;;;25.80;99.90;;;;;;8367269;28;20201;-71
2023/07/06 13:07:08;;;;;;;2.20;1.33;;;25.70;99.90;;;;;;8353786;28;20186;-68
2023/07/06 13:11:09;;;;;;;2.35;1.20;;;25.80;99.90;;;;;;8353691;28;20263;-72
2023/07/06 13:15:19;;;;;;;3.60;1.40;;;26.10;99.90;;;;;;8350546;28;20181;-71
2023/07/06 13:19:23;;;;;;;2.42;1.40;;;26.00;99.90;;;;;;8367256;28;20198;-69
2023/07/06 13:23:24;;;;;;;3.10;1.20;;;25.80;99.90;;;;;;8341883;28;20182;-70
2023/07/06 13:27:28;;;;;;;2.83;1.17;;;25.40;99.90;;;;;;8356131;28;20249;-68
2023/07/06 13:31:29;;;;;;;2.07;1.10;;;25.60;99.90;;;;;;8364756;28;20182;-69
2023/07/06 13:35:30;;;;;;;3.42;1.10;;;26.00;99.90;;;;;;8349467;28;20220;-69
2023/07/06 13:39:34;;;;;;;2.55;1.30;;;26.00;99.90;;;;;;8363931;28;20206;-70
2023/07/06 13:43:38;;;;;;;1.48;1.25;;;26.30;99.90;;;;;;8362599;28;20177;-70
2023/07/06 13:47:39;;;;;;;1.42;1.10;;;26.60;99.90;;;;;;8343160;28;20185;-73
2023/07/06 13:51:40;;;;;;;2.38;1.20;;;27.10;99.90;;;;;;8345241;28;20196;-70
2023/07/06 13:55:48;;;;;;;2.22;1.20;;;27.10;99.90;;;;;;8362941;28;20189;-68
2023/07/06 13:59:49;;;;;;;3.35;1.73;;;26.90;99.90;;;;;;8351751;28;20206;-67
2023/07/06 14:03:54;;;;;;;1.58;1.10;;;26.30;99.90;;;;;;8347708;28;20262;-68
2023/07/06 14:07:55;;;;;;;3.00;1.23;;;26.50;99.90;;;;;;8365310;28;20177;-69
2023/07/06 14:11:56;;;;;;;3.35;1.30;;;26.30;99.90;;;;;;8342007;28;20265;-71
2023/07/06 14:15:58;;;;;;;2.88;1.40;;;26.10;99.90;;;;;;8365371;28;20270;-70
2023/07/06 14:20:01;;;;;;;2.20;1.00;;;26.00;99.90;;;;;;8348467;28;20228;-70
2023/07/06 14:24:02;;;;;;;3.42;1.30;;;25.90;99.90;;;;;;8350309;28;20220;-70
2023/07/06 14:28:04;;;;;;;2.92;1.50;;;25.80;99.90;;;;;;8362162;28;20181;-69
2023/07/06 14:32:05;;;;;;;1.90;1.10;;;25.80;99.90;;;;;;8346091;28;20174;-71
2023/07/06 14:36:06;;;;;;;1.80;1.20;;;25.40;99.90;;;;;;8362999;28;20193;-67
2023/07/06 14:40:08;;;;;;;3.63;1.23;;;25.00;99.90;;;;;;8362145;28;20201;-69
2023/07/06 14:44:09;;;;;;;3.23;1.50;;;25.40;99.90;;;;;;8348673;28;20201;-70
2023/07/06 14:48:10;;;;;;;1.90;1.37;;;25.50;99.90;;;;;;8364765;28;20239;-69
2023/07/06 14:52:11;;;;;;;1.63;1.20;;;24.90;99.90;;;;;;8350499;28;20181;-68
2023/07/06 14:56:12;;;;;;;2.67;1.20;;;24.50;99.90;;;;;;8367184;28;20213;-68
2023/07/06 15:00:13;;;;;;;2.87;1.63;;;24.50;99.90;;;;;;8356391;28;20221;-69
2023/07/06 15:04:14;;;;;;;3.13;1.27;;;24.80;99.90;;;;;;8369498;28;20201;-69
2023/07/06 15:08:15;;;;;;;1.43;1.00;;;25.20;99.90;;;;;;8354610;28;20240;-69
2023/07/06 15:12:16;;;;;;;3.40;1.30;;;25.50;99.90;;;;;;8351047;28;20351;-69
2023/07/06 15:16:17;;;;;;;2.33;1.27;;;25.70;99.90;;;;;;8359914;28;20196;-69
2023/07/06 15:20:24;;;;;;;2.63;1.40;;;25.70;99.90;;;;;;8353926;28;20311;-68
2023/07/06 15:24:25;;;;;;;2.23;1.57;;;25.50;99.90;;;;;;8369584;28;20189;-69
2023/07/06 15:28:26;;;;;;;3.27;1.20;;;25.00;99.90;;;;;;8353023;28;20193;-70
2023/07/06 15:32:28;;;;;;;2.57;1.10;;;25.10;99.90;;;;;;8350178;28;20193;-68
2023/07/06 15:36:29;;;;;;;1.70;1.00;;;25.30;99.90;;;;;;8349899;28;20296;-68
2023/07/06 15:40:30;;;;;;;3.03;1.67;;;25.40;99.90;;;;;;8351883;28;20213;-69
2023/07/06 15:44:31;;;;;;;4.13;1.20;;;25.40;99.90;;;;;;8365252;28;20201;-69
2023/07/06 15:48:31;;;;;;;2.60;1.30;;;25.70;99.90;;;;;;8357131;28;20182;-69
2023/07/06 15:52:33;;;;;;;4.10;1.33;;;26.20;99.90;;;;;;8367117;28;20216;-69
2023/07/06 15:56:37;;;;;;;3.40;1.30;;;26.30;99.90;;;;;;8345801;28;20186;-68
2023/07/06 16:00:40;;;;;;;2.72;1.30;;;26.40;99.90;;;;;;8352053;28;20209;-68
2023/07/06 16:04:41;;;;;;;2.78;1.30;;;26.30;99.90;;;;;;8365369;28;20193;-69
2023/07/06 16:08:41;;;;;;;2.50;1.40;;;25.90;99.90;;;;;;8352862;28;20247;-69
2023/07/06 16:12:43;;;;;;;2.03;1.17;;;25.50;99.90;;;;;;8347873;28;20189;-68
2023/07/06 16:16:44;;;;;;;1.80;1.20;;;25.40;99.90;;;;;;8364968;28;20205;-69
2023/07/06 16:20:51;;;;;;;2.30;1.40;;;25.30;99.90;;;;;;8367893;28;20261;-70
2023/07/06 16:24:55;;;;;;;2.23;1.40;;;25.20;99.90;;;;;;8367752;28;20174;-72
2023/07/06 16:28:59;;;;;;;2.77;1.00;;;25.30;99.90;;;;;;8366351;28;20185;-70
2023/07/06 16:33:00;;;;;;;2.00;1.10;;;25.60;99.90;;;;;;8365571;28;20189;-69
2023/07/06 16:37:01;;;;;;;2.67;1.50;;;25.60;99.90;;;;;;8369874;28;20326;-69
2023/07/06 16:41:10;;;;;;;2.57;1.07;;;25.60;99.90;;;;;;8368145;28;20240;-69
2023/07/06 16:45:11;;;;;;;1.70;1.00;;;25.70;99.90;;;;;;8366290;28;20184;-70
2023/07/06 16:49:12;;;;;;;2.20;1.30;;;25.80;99.90;;;;;;8362808;28;20189;-69
2023/07/06 16:53:12;;;;;;;3.10;1.50;;;25.90;99.90;;;;;;8352517;28;20182;-70
2023/07/06 16:57:13;;;;;;;1.97;1.10;;;25.80;99.90;;;;;;8354002;28;20193;-68
2023/07/06 17:01:14;;;;;;;3.37;1.30;;;25.50;99.90;;;;;;8349385;28;20224;-68
2023/07/06 17:05:15;;;;;;;2.27;1.10;;;25.20;99.90;;;;;;8365301;28;20236;-69
2023/07/06 17:09:16;;;;;;;1.90;1.20;;;24.90;99.90;;;;;;8366660;28;20189;-71
2023/07/06 17:13:17;;;;;;;2.87;1.70;;;24.80;99.90;;;;;;8352937;28;20189;-68
2023/07/06 17:17:18;;;;;;;2.40;1.57;;;24.70;99.90;;;;;;8366362;28;20193;-69
2023/07/06 17:21:19;;;;;;;2.37;1.70;;;24.90;99.90;;;;;;8349668;28;20216;-69
2023/07/06 17:25:20;;;;;;;3.27;1.60;;;25.70;99.90;;;;;;8346535;28;20185;-68
2023/07/06 17:29:20;;;;;;;3.47;1.90;;;26.10;99.90;;;;;;8355320;28;20186;-67
2023/07/06 17:33:21;;;;;;;5.55;4.18;;;26.30;99.90;;;;;;8346422;28;20200;-69
2023/07/06 17:37:22;;;;;;;4.03;1.92;;;26.60;99.90;;;;;;8366372;28;20199;-68
2023/07/06 17:41:23;;;;;;;2.38;1.10;;;26.70;99.90;;;;;;8353224;28;20201;-68
2023/07/06 17:45:25;;;;;;;3.25;1.40;;;26.90;99.90;;;;;;8346561;28;20193;-69
2023/07/06 17:49:26;;;;;;;3.00;1.17;;;26.80;99.90;;;;;;8352120;28;20180;-70
2023/07/06 17:53:27;;;;;;;4.18;1.67;;;27.20;99.90;;;;;;8351563;28;20231;-69
2023/07/06 17:57:28;;;;;;;2.50;1.20;;;27.60;99.90;;;;;;8344682;28;20257;-69
2023/07/06 18:01:29;;;;;;;1.90;1.30;;;28.10;99.90;;;;;;8350639;28;20262;-69
2023/07/06 18:05:30;;;;;;;3.58;1.63;;;28.80;99.90;;;;;;8349298;28;20232;-70
2023/07/06 18:09:30;;;;;;;1.88;1.40;;;29.40;99.90;;;;;;8352704;28;20177;-70
2023/07/06 18:13:33;;;;;;;7.53;2.22;;;29.70;99.90;;;;;;8363736;28;20211;-70
2023/07/06 18:17:34;;;;;;;2.15;1.40;;;29.80;99.90;;;;;;8349715;28;20220;-70
2023/07/06 18:21:34;;;;;;;2.55;1.50;;;29.90;99.90;;;;;;8344597;28;20224;-70
2023/07/06 18:25:46;;;;;;;2.40;1.75;;;30.00;99.90;;;;;;8349407;28;20299;-69
2023/07/06 18:29:47;;;;;;;3.20;1.25;;;30.10;99.90;;;;;;8349716;28;20196;-71
2023/07/06 18:33:47;;;;;;;5.00;1.50;;;30.00;99.90;;;;;;8352946;28;20193;-69
2023/07/06 18:37:48;;;;;;;2.72;1.45;;;29.70;99.90;;;;;;8361818;28;20197;-69
2023/07/06 18:41:49;;;;;;;1.90;1.20;;;29.30;99.90;;;;;;8364845;28;20208;-69
2023/07/06 18:45:54;;;;;;;1.77;1.25;;;28.70;99.90;;;;;;8345236;28;20193;-70
2023/07/06 18:49:56;;;;;;;2.63;1.30;;;28.00;99.90;;;;;;8350449;28;20217;-69
2023/07/06 18:53:57;;;;;;;3.25;1.60;;;27.20;99.90;;;;;;8361343;28;20245;-69
2023/07/06 18:58:01;;;;;;;2.40;1.50;;;26.30;99.90;;;;;;8352482;28;20282;-70
2023/07/06 19:02:05;;;;;;;2.57;1.30;;;25.30;99.90;;;;;;8342260;28;20182;-68
2023/07/06 19:06:07;;;;;;;2.23;1.40;;;24.30;1.00;;;;;;8352328;28;20207;-67
2023/07/06 19:10:08;;;;;;;2.47;1.40;;;23.10;1.00;;;;;;8362069;28;20196;-69
2023/07/06 19:14:09;;;;;;;2.30;1.47;;;22.10;1.00;;;;;;8361451;28;20272;-68
2023/07/06 19:18:10;;;;;;;1.40;1.30;;;21.40;1.00;;;;;;8347337;28;20189;-67
2023/07/06 19:22:11;;;;;;;2.07;1.30;;;20.70;1.00;;;;;;8349692;28;20184;-68
2023/07/06 19:26:14;;;;;;;1.93;1.57;;;20.10;1.00;;;;;;8347456;28;20255;-68
2023/07/06 19:30:15;;;;;;;1.77;1.37;;;19.70;1.00;;;;;;8348695;28;20186;-68
2023/07/06 19:34:16;;;;;;;1.57;1.40;;;19.20;1.00;;;;;;8349735;28;20178;-67
2023/07/06 19:38:18;;;;;;;2.83;1.50;;;18.90;1.00;;;;;;8359447;28;20205;-65
2023/07/06 19:42:18;;;;;;;1.43;1.30;;;18.50;1.00;;;;;;8355312;28;20271;-65
2023/07/06 19:46:20;;;;;;;1.90;1.73;;;18.30;1.00;;;;;;8369157;28;20189;-64
2023/07/06 19:50:21;;;;;;;1.63;1.43;;;18.10;1.00;;;;;;8368309;28;20181;-65
2023/07/06 19:54:23;;;;;;;2.00;1.80;;;17.80;1.00;;;;;;8355137;28;20193;-64
2023/07/06 19:58:24;;;;;;;2.00;1.73;;;17.60;1.00;;;;;;8352839;28;20214;-65
2023/07/06 20:02:25;;;;;;;2.77;1.87;;;17.40;1.00;;;;;;8356135;28;20213;-65
2023/07/06 20:06:26;;;;;;;3.23;2.37;;;17.20;1.00;;;;;;8354115;28;20202;-66
2023/07/06 20:10:27;;;;;;;2.70;2.00;;;17.00;1.00;;;;;;8350295;28;20201;-66
2023/07/06 20:14:28;;;;;;;3.40;2.27;;;16.70;1.00;;;;;;8368862;28;20201;-66
2023/07/06 20:18:29;;;;;;;3.47;2.50;;;16.50;1.00;;;;;;8353333;28;20304;-66
2023/07/06 20:22:36;;;;;;;2.40;2.07;;;16.30;13.80;;;;;;8353364;28;20192;-65
2023/07/06 20:26:37;;;;;;;3.50;2.20;;;16.00;43.20;;;;;;8356650;28;20197;-66
2023/07/06 20:30:45;;;;;;;2.40;2.20;;;15.90;57.40;;;;;;8365296;28;20184;-67
2023/07/06 20:34:49;;;;;;;2.60;2.27;;;15.70;72.60;;;;;;8365533;28;20193;-66
2023/07/06 20:38:55;;;;;;;4.70;2.80;;;15.50;85.00;;;;;;8352285;28;20209;-67
2023/07/06 20:42:56;;;;;;;2.27;2.07;;;15.40;86.00;;;;;;8353496;28;20181;-68
2023/07/06 20:46:57;;;;;;;3.10;2.43;;;15.30;87.60;;;;;;8350025;28;20287;-67
2023/07/06 20:50:58;;;;;;;3.70;2.40;;;15.20;91.70;;;;;;8355025;28;20276;-67
2023/07/06 20:54:59;;;;;;;3.30;2.30;;;15.00;94.40;;;;;;8364878;28;20273;-67
2023/07/06 20:59:00;;;;;;;2.70;2.37;;;14.80;99.90;;;;;;8350031;28;20271;-66
2023/07/06 21:03:02;;;;;;;2.63;2.40;;;14.60;99.90;;;;;;8365420;28;20216;-67
2023/07/06 21:07:03;;;;;;;3.07;2.60;;;14.50;99.90;;;;;;8366492;28;20193;-65
2023/07/06 21:11:04;;;;;;;3.13;2.60;;;14.40;99.90;;;;;;8352581;28;20189;-67
2023/07/06 21:15:05;;;;;;;4.03;2.70;;;14.30;99.90;;;;;;8347203;28;20182;-67
2023/07/06 21:19:07;;;;;;;2.93;2.27;;;14.20;99.90;;;;;;8356559;28;20216;-67